sensor_id;sensor_type;location;lat;lon;timestamp;P1;durP1;ratioP1;P2;durP2;ratioP2
32172;SDS011;18679;45.190;5.722;2023-04-20T00:02:38;3.75;;;2.60;;
32172;SDS011;18679;45.190;5.722;2023-04-20T00:05:40;9.75;;;2.30;;
32172;SDS011;18679;45.190;5.722;2023-04-20T00:08:42;4.82;;;2.63;;
32172;SDS011;18679;45.190;5.722;2023-04-20T00:11:43;4.63;;;2.55;;
32172;SDS011;18679;45.190;5.722;2023-04-20T00:14:44;4.63;;;2.45;;
32172;SDS011;18679;45.190;5.722;2023-04-20T00:17:45;4.38;;;2.53;;
32172;SDS011;18679;45.190;5.722;2023-04-20T00:20:47;4.78;;;2.55;;
32172;SDS011;18679;45.190;5.722;2023-04-20T00:23:48;6.72;;;2.40;;
32172;SDS011;18679;45.190;5.722;2023-04-20T00:26:50;5.53;;;2.42;;
32172;SDS011;18679;45.190;5.722;2023-04-20T00:29:51;4.15;;;2.25;;
32172;SDS011;18679;45.190;5.722;2023-04-20T00:32:52;4.18;;;2.65;;
32172;SDS011;18679;45.190;5.722;2023-04-20T00:35:53;8.57;;;2.75;;
32172;SDS011;18679;45.190;5.722;2023-04-20T00:38:57;6.05;;;2.83;;
32172;SDS011;18679;45.190;5.722;2023-04-20T00:42:04;3.50;;;2.28;;
32172;SDS011;18679;45.190;5.722;2023-04-20T00:45:09;3.97;;;2.25;;
32172;SDS011;18679;45.190;5.722;2023-04-20T00:48:10;4.15;;;2.40;;
32172;SDS011;18679;45.190;5.722;2023-04-20T00:51:11;3.78;;;2.35;;
32172;SDS011;18679;45.190;5.722;2023-04-20T00:54:13;3.47;;;2.15;;
32172;SDS011;18679;45.190;5.722;2023-04-20T00:57:17;3.45;;;1.95;;
32172;SDS011;18679;45.190;5.722;2023-04-20T01:00:23;3.22;;;2.13;;
32172;SDS011;18679;45.190;5.722;2023-04-20T01:03:25;2.95;;;2.10;;
32172;SDS011;18679;45.190;5.722;2023-04-20T01:06:26;4.35;;;2.50;;
32172;SDS011;18679;45.190;5.722;2023-04-20T01:09:27;5.95;;;2.67;;
32172;SDS011;18679;45.190;5.722;2023-04-20T01:12:28;6.45;;;2.45;;
32172;SDS011;18679;45.190;5.722;2023-04-20T01:15:29;3.42;;;2.08;;
32172;SDS011;18679;45.190;5.722;2023-04-20T01:18:39;4.32;;;2.25;;
32172;SDS011;18679;45.190;5.722;2023-04-20T01:21:45;4.47;;;2.30;;
32172;SDS011;18679;45.190;5.722;2023-04-20T01:24:46;3.63;;;2.25;;
32172;SDS011;18679;45.190;5.722;2023-04-20T01:27:48;5.15;;;2.75;;
32172;SDS011;18679;45.190;5.722;2023-04-20T01:30:48;3.45;;;2.10;;
32172;SDS011;18679;45.190;5.722;2023-04-20T01:33:49;6.43;;;2.45;;
32172;SDS011;18679;45.190;5.722;2023-04-20T01:36:54;4.50;;;2.47;;
32172;SDS011;18679;45.190;5.722;2023-04-20T01:39:55;5.05;;;2.40;;
32172;SDS011;18679;45.190;5.722;2023-04-20T01:42:56;5.82;;;2.55;;
32172;SDS011;18679;45.190;5.722;2023-04-20T01:45:56;5.18;;;2.42;;
32172;SDS011;18679;45.190;5.722;2023-04-20T01:48:58;6.55;;;2.40;;
32172;SDS011;18679;45.190;5.722;2023-04-20T01:51:59;3.95;;;2.38;;
32172;SDS011;18679;45.190;5.722;2023-04-20T01:55:00;2.92;;;2.42;;
32172;SDS011;18679;45.190;5.722;2023-04-20T01:58:01;4.10;;;2.25;;
32172;SDS011;18679;45.190;5.722;2023-04-20T02:01:03;3.40;;;2.33;;
32172;SDS011;18679;45.190;5.722;2023-04-20T02:04:04;6.32;;;2.28;;
32172;SDS011;18679;45.190;5.722;2023-04-20T02:07:05;7.35;;;2.50;;
32172;SDS011;18679;45.190;5.722;2023-04-20T02:10:06;3.22;;;2.10;;
32172;SDS011;18679;45.190;5.722;2023-04-20T02:13:07;2.95;;;2.10;;
32172;SDS011;18679;45.190;5.722;2023-04-20T02:16:08;3.03;;;2.20;;
32172;SDS011;18679;45.190;5.722;2023-04-20T02:19:10;3.20;;;2.30;;
32172;SDS011;18679;45.190;5.722;2023-04-20T02:22:11;3.88;;;2.20;;
32172;SDS011;18679;45.190;5.722;2023-04-20T02:25:12;5.43;;;2.10;;
32172;SDS011;18679;45.190;5.722;2023-04-20T02:28:13;3.53;;;2.03;;
32172;SDS011;18679;45.190;5.722;2023-04-20T02:31:14;3.20;;;1.83;;
32172;SDS011;18679;45.190;5.722;2023-04-20T02:34:18;4.47;;;2.65;;
32172;SDS011;18679;45.190;5.722;2023-04-20T02:37:19;3.72;;;2.30;;
32172;SDS011;18679;45.190;5.722;2023-04-20T02:40:20;7.82;;;2.20;;
32172;SDS011;18679;45.190;5.722;2023-04-20T02:43:20;3.22;;;1.83;;
32172;SDS011;18679;45.190;5.722;2023-04-20T02:46:22;4.18;;;2.67;;
32172;SDS011;18679;45.190;5.722;2023-04-20T02:49:23;4.78;;;2.63;;
32172;SDS011;18679;45.190;5.722;2023-04-20T02:52:24;3.53;;;2.28;;
32172;SDS011;18679;45.190;5.722;2023-04-20T02:55:26;5.13;;;2.25;;
32172;SDS011;18679;45.190;5.722;2023-04-20T02:58:31;3.97;;;2.55;;
32172;SDS011;18679;45.190;5.722;2023-04-20T03:01:51;10.57;;;2.67;;
32172;SDS011;18679;45.190;5.722;2023-04-20T03:04:57;4.50;;;2.53;;
32172;SDS011;18679;45.190;5.722;2023-04-20T03:07:58;6.40;;;2.33;;
32172;SDS011;18679;45.190;5.722;2023-04-20T03:11:00;3.33;;;2.45;;
32172;SDS011;18679;45.190;5.722;2023-04-20T03:14:01;5.15;;;2.60;;
32172;SDS011;18679;45.190;5.722;2023-04-20T03:17:02;5.72;;;2.47;;
32172;SDS011;18679;45.190;5.722;2023-04-20T03:20:03;3.13;;;2.30;;
32172;SDS011;18679;45.190;5.722;2023-04-20T03:23:05;3.00;;;2.40;;
32172;SDS011;18679;45.190;5.722;2023-04-20T03:26:06;5.07;;;2.40;;
32172;SDS011;18679;45.190;5.722;2023-04-20T03:29:28;6.05;;;2.50;;
32172;SDS011;18679;45.190;5.722;2023-04-20T03:32:29;6.28;;;2.47;;
32172;SDS011;18679;45.190;5.722;2023-04-20T03:35:30;5.63;;;2.38;;
32172;SDS011;18679;45.190;5.722;2023-04-20T03:38:31;3.83;;;2.10;;
32172;SDS011;18679;45.190;5.722;2023-04-20T03:41:32;4.47;;;2.25;;
32172;SDS011;18679;45.190;5.722;2023-04-20T03:44:33;7.20;;;3.20;;
32172;SDS011;18679;45.190;5.722;2023-04-20T03:47:36;4.82;;;2.17;;
32172;SDS011;18679;45.190;5.722;2023-04-20T03:50:37;3.47;;;2.38;;
32172;SDS011;18679;45.190;5.722;2023-04-20T03:53:38;8.82;;;2.70;;
32172;SDS011;18679;45.190;5.722;2023-04-20T03:56:41;4.30;;;2.50;;
32172;SDS011;18679;45.190;5.722;2023-04-20T03:59:44;6.45;;;2.50;;
32172;SDS011;18679;45.190;5.722;2023-04-20T04:02:49;4.07;;;2.67;;
32172;SDS011;18679;45.190;5.722;2023-04-20T04:05:57;5.10;;;2.43;;
32172;SDS011;18679;45.190;5.722;2023-04-20T04:08:58;8.20;;;2.50;;
32172;SDS011;18679;45.190;5.722;2023-04-20T04:11:59;4.47;;;2.60;;
32172;SDS011;18679;45.190;5.722;2023-04-20T04:15:02;4.97;;;2.70;;
32172;SDS011;18679;45.190;5.722;2023-04-20T04:18:08;4.72;;;2.88;;
32172;SDS011;18679;45.190;5.722;2023-04-20T04:21:10;7.32;;;3.22;;
32172;SDS011;18679;45.190;5.722;2023-04-20T04:24:15;4.55;;;2.35;;
32172;SDS011;18679;45.190;5.722;2023-04-20T04:27:32;5.47;;;2.97;;
32172;SDS011;18679;45.190;5.722;2023-04-20T04:30:36;5.07;;;2.65;;
32172;SDS011;18679;45.190;5.722;2023-04-20T04:33:39;5.40;;;2.88;;
32172;SDS011;18679;45.190;5.722;2023-04-20T04:36:41;6.80;;;2.30;;
32172;SDS011;18679;45.190;5.722;2023-04-20T04:39:46;4.28;;;2.55;;
32172;SDS011;18679;45.190;5.722;2023-04-20T04:42:54;5.72;;;2.50;;
32172;SDS011;18679;45.190;5.722;2023-04-20T04:45:55;11.38;;;2.67;;
32172;SDS011;18679;45.190;5.722;2023-04-20T04:48:58;5.93;;;2.58;;
32172;SDS011;18679;45.190;5.722;2023-04-20T04:52:02;5.03;;;2.70;;
32172;SDS011;18679;45.190;5.722;2023-04-20T04:55:03;3.63;;;2.58;;
32172;SDS011;18679;45.190;5.722;2023-04-20T04:58:07;7.82;;;2.97;;
32172;SDS011;18679;45.190;5.722;2023-04-20T05:01:08;3.95;;;2.35;;
32172;SDS011;18679;45.190;5.722;2023-04-20T05:04:09;4.70;;;2.25;;
32172;SDS011;18679;45.190;5.722;2023-04-20T05:07:10;4.10;;;2.30;;
32172;SDS011;18679;45.190;5.722;2023-04-20T05:10:11;3.13;;;2.05;;
32172;SDS011;18679;45.190;5.722;2023-04-20T05:13:11;3.20;;;2.10;;
32172;SDS011;18679;45.190;5.722;2023-04-20T05:16:12;5.90;;;2.50;;
32172;SDS011;18679;45.190;5.722;2023-04-20T05:19:13;7.40;;;2.47;;
32172;SDS011;18679;45.190;5.722;2023-04-20T05:22:14;4.65;;;2.35;;
32172;SDS011;18679;45.190;5.722;2023-04-20T05:25:15;9.10;;;2.35;;
32172;SDS011;18679;45.190;5.722;2023-04-20T05:28:16;6.35;;;3.10;;
32172;SDS011;18679;45.190;5.722;2023-04-20T05:31:17;4.88;;;2.47;;
32172;SDS011;18679;45.190;5.722;2023-04-20T05:34:19;4.22;;;2.50;;
32172;SDS011;18679;45.190;5.722;2023-04-20T05:37:20;4.05;;;2.50;;
32172;SDS011;18679;45.190;5.722;2023-04-20T05:40:21;8.55;;;2.80;;
32172;SDS011;18679;45.190;5.722;2023-04-20T05:43:21;8.23;;;2.75;;
32172;SDS011;18679;45.190;5.722;2023-04-20T05:46:22;5.60;;;2.90;;
32172;SDS011;18679;45.190;5.722;2023-04-20T05:49:23;4.30;;;2.72;;
32172;SDS011;18679;45.190;5.722;2023-04-20T05:52:24;4.57;;;2.40;;
32172;SDS011;18679;45.190;5.722;2023-04-20T05:55:25;8.15;;;3.28;;
32172;SDS011;18679;45.190;5.722;2023-04-20T05:58:26;7.05;;;2.78;;
32172;SDS011;18679;45.190;5.722;2023-04-20T06:01:27;4.97;;;2.97;;
32172;SDS011;18679;45.190;5.722;2023-04-20T06:04:28;4.78;;;2.58;;
32172;SDS011;18679;45.190;5.722;2023-04-20T06:07:29;6.03;;;3.08;;
32172;SDS011;18679;45.190;5.722;2023-04-20T06:10:30;6.75;;;3.05;;
32172;SDS011;18679;45.190;5.722;2023-04-20T06:13:33;7.53;;;2.65;;
32172;SDS011;18679;45.190;5.722;2023-04-20T06:16:34;6.50;;;3.05;;
32172;SDS011;18679;45.190;5.722;2023-04-20T06:19:34;4.95;;;2.78;;
32172;SDS011;18679;45.190;5.722;2023-04-20T06:22:36;4.82;;;2.88;;
32172;SDS011;18679;45.190;5.722;2023-04-20T06:25:41;4.55;;;2.58;;
32172;SDS011;18679;45.190;5.722;2023-04-20T06:28:44;5.32;;;2.50;;
32172;SDS011;18679;45.190;5.722;2023-04-20T06:31:46;14.00;;;3.15;;
32172;SDS011;18679;45.190;5.722;2023-04-20T06:34:47;6.70;;;3.00;;
32172;SDS011;18679;45.190;5.722;2023-04-20T06:37:48;6.25;;;2.65;;
32172;SDS011;18679;45.190;5.722;2023-04-20T06:40:49;5.93;;;3.22;;
32172;SDS011;18679;45.190;5.722;2023-04-20T06:43:50;4.70;;;2.95;;
32172;SDS011;18679;45.190;5.722;2023-04-20T06:46:51;5.78;;;2.50;;
32172;SDS011;18679;45.190;5.722;2023-04-20T06:49:52;5.38;;;3.63;;
32172;SDS011;18679;45.190;5.722;2023-04-20T06:52:53;5.45;;;3.13;;
32172;SDS011;18679;45.190;5.722;2023-04-20T06:55:54;5.15;;;3.13;;
32172;SDS011;18679;45.190;5.722;2023-04-20T06:58:55;7.80;;;3.97;;
32172;SDS011;18679;45.190;5.722;2023-04-20T07:01:56;7.05;;;3.00;;
32172;SDS011;18679;45.190;5.722;2023-04-20T07:05:00;5.60;;;3.80;;
32172;SDS011;18679;45.190;5.722;2023-04-20T07:08:01;4.78;;;3.08;;
32172;SDS011;18679;45.190;5.722;2023-04-20T07:11:02;7.78;;;3.25;;
32172;SDS011;18679;45.190;5.722;2023-04-20T07:14:03;7.07;;;4.03;;
32172;SDS011;18679;45.190;5.722;2023-04-20T07:17:04;5.57;;;3.45;;
32172;SDS011;18679;45.190;5.722;2023-04-20T07:20:05;12.18;;;4.07;;
32172;SDS011;18679;45.190;5.722;2023-04-20T07:23:09;6.72;;;3.35;;
32172;SDS011;18679;45.190;5.722;2023-04-20T07:26:10;10.95;;;3.25;;
32172;SDS011;18679;45.190;5.722;2023-04-20T07:29:11;7.45;;;3.38;;
32172;SDS011;18679;45.190;5.722;2023-04-20T07:32:11;9.13;;;3.10;;
32172;SDS011;18679;45.190;5.722;2023-04-20T07:35:13;9.40;;;3.55;;
32172;SDS011;18679;45.190;5.722;2023-04-20T07:38:14;12.13;;;3.63;;
32172;SDS011;18679;45.190;5.722;2023-04-20T07:41:15;8.05;;;3.10;;
32172;SDS011;18679;45.190;5.722;2023-04-20T07:44:16;5.57;;;3.17;;
32172;SDS011;18679;45.190;5.722;2023-04-20T07:47:17;9.15;;;4.07;;
32172;SDS011;18679;45.190;5.722;2023-04-20T07:50:18;9.77;;;3.75;;
32172;SDS011;18679;45.190;5.722;2023-04-20T07:53:19;10.48;;;3.45;;
32172;SDS011;18679;45.190;5.722;2023-04-20T07:56:19;11.57;;;4.50;;
32172;SDS011;18679;45.190;5.722;2023-04-20T07:59:20;11.40;;;3.85;;
32172;SDS011;18679;45.190;5.722;2023-04-20T08:02:21;6.95;;;3.60;;
32172;SDS011;18679;45.190;5.722;2023-04-20T08:05:22;6.60;;;3.95;;
32172;SDS011;18679;45.190;5.722;2023-04-20T08:08:24;7.18;;;3.85;;
32172;SDS011;18679;45.190;5.722;2023-04-20T08:11:24;9.52;;;3.63;;
32172;SDS011;18679;45.190;5.722;2023-04-20T08:14:25;9.68;;;4.18;;
32172;SDS011;18679;45.190;5.722;2023-04-20T08:17:26;6.97;;;3.40;;
32172;SDS011;18679;45.190;5.722;2023-04-20T08:20:27;13.55;;;3.90;;
32172;SDS011;18679;45.190;5.722;2023-04-20T08:23:28;10.02;;;3.80;;
32172;SDS011;18679;45.190;5.722;2023-04-20T08:26:30;6.70;;;3.92;;
32172;SDS011;18679;45.190;5.722;2023-04-20T08:29:31;10.95;;;4.38;;
32172;SDS011;18679;45.190;5.722;2023-04-20T08:32:32;8.05;;;3.65;;
32172;SDS011;18679;45.190;5.722;2023-04-20T08:35:33;19.15;;;4.07;;
32172;SDS011;18679;45.190;5.722;2023-04-20T08:38:33;9.50;;;3.95;;
32172;SDS011;18679;45.190;5.722;2023-04-20T08:41:34;6.63;;;4.43;;
32172;SDS011;18679;45.190;5.722;2023-04-20T08:44:36;10.18;;;5.05;;
32172;SDS011;18679;45.190;5.722;2023-04-20T08:47:37;7.18;;;4.57;;
32172;SDS011;18679;45.190;5.722;2023-04-20T08:50:39;7.43;;;4.50;;
32172;SDS011;18679;45.190;5.722;2023-04-20T08:53:41;8.63;;;4.35;;
32172;SDS011;18679;45.190;5.722;2023-04-20T08:56:43;9.48;;;4.75;;
32172;SDS011;18679;45.190;5.722;2023-04-20T08:59:45;11.02;;;5.03;;
32172;SDS011;18679;45.190;5.722;2023-04-20T09:05:50;8.05;;;4.70;;
32172;SDS011;18679;45.190;5.722;2023-04-20T09:08:51;7.25;;;4.22;;
32172;SDS011;18679;45.190;5.722;2023-04-20T09:12:03;8.13;;;4.20;;
32172;SDS011;18679;45.190;5.722;2023-04-20T09:15:06;8.25;;;4.70;;
32172;SDS011;18679;45.190;5.722;2023-04-20T09:18:13;11.25;;;5.00;;
32172;SDS011;18679;45.190;5.722;2023-04-20T09:21:14;10.93;;;5.15;;
32172;SDS011;18679;45.190;5.722;2023-04-20T09:24:15;9.90;;;4.40;;
32172;SDS011;18679;45.190;5.722;2023-04-20T09:27:17;9.68;;;4.65;;
32172;SDS011;18679;45.190;5.722;2023-04-20T09:30:18;10.85;;;4.90;;
32172;SDS011;18679;45.190;5.722;2023-04-20T09:33:19;10.15;;;4.45;;
32172;SDS011;18679;45.190;5.722;2023-04-20T09:36:36;7.85;;;4.20;;
32172;SDS011;18679;45.190;5.722;2023-04-20T09:39:39;8.25;;;4.53;;
32172;SDS011;18679;45.190;5.722;2023-04-20T09:42:42;9.07;;;3.97;;
32172;SDS011;18679;45.190;5.722;2023-04-20T09:45:44;14.23;;;5.07;;
32172;SDS011;18679;45.190;5.722;2023-04-20T09:48:45;7.68;;;4.63;;
32172;SDS011;18679;45.190;5.722;2023-04-20T09:51:46;8.45;;;4.47;;
32172;SDS011;18679;45.190;5.722;2023-04-20T09:54:49;6.70;;;4.05;;
32172;SDS011;18679;45.190;5.722;2023-04-20T09:57:50;8.93;;;4.50;;
32172;SDS011;18679;45.190;5.722;2023-04-20T10:00:53;7.68;;;4.22;;
32172;SDS011;18679;45.190;5.722;2023-04-20T10:03:54;8.27;;;4.18;;
32172;SDS011;18679;45.190;5.722;2023-04-20T10:06:55;7.43;;;3.90;;
32172;SDS011;18679;45.190;5.722;2023-04-20T10:10:06;11.05;;;3.67;;
32172;SDS011;18679;45.190;5.722;2023-04-20T10:13:11;5.60;;;3.70;;
32172;SDS011;18679;45.190;5.722;2023-04-20T10:16:17;5.57;;;3.40;;
32172;SDS011;18679;45.190;5.722;2023-04-20T10:19:18;11.85;;;4.32;;
32172;SDS011;18679;45.190;5.722;2023-04-20T10:22:27;11.35;;;4.35;;
32172;SDS011;18679;45.190;5.722;2023-04-20T10:25:32;8.10;;;4.25;;
32172;SDS011;18679;45.190;5.722;2023-04-20T10:28:37;7.93;;;4.22;;
32172;SDS011;18679;45.190;5.722;2023-04-20T10:31:40;9.88;;;4.60;;
32172;SDS011;18679;45.190;5.722;2023-04-20T10:34:41;6.95;;;3.50;;
32172;SDS011;18679;45.190;5.722;2023-04-20T10:37:46;9.30;;;3.60;;
32172;SDS011;18679;45.190;5.722;2023-04-20T10:40:48;6.38;;;3.40;;
32172;SDS011;18679;45.190;5.722;2023-04-20T10:43:49;10.65;;;3.38;;
32172;SDS011;18679;45.190;5.722;2023-04-20T10:46:50;7.18;;;3.67;;
32172;SDS011;18679;45.190;5.722;2023-04-20T10:49:51;8.73;;;3.85;;
32172;SDS011;18679;45.190;5.722;2023-04-20T10:52:52;7.70;;;4.35;;
32172;SDS011;18679;45.190;5.722;2023-04-20T10:55:59;7.68;;;5.10;;
32172;SDS011;18679;45.190;5.722;2023-04-20T10:59:04;12.95;;;5.95;;
32172;SDS011;18679;45.190;5.722;2023-04-20T11:02:10;12.60;;;6.18;;
32172;SDS011;18679;45.190;5.722;2023-04-20T11:05:13;13.43;;;6.22;;
32172;SDS011;18679;45.190;5.722;2023-04-20T11:08:15;9.48;;;5.72;;
32172;SDS011;18679;45.190;5.722;2023-04-20T11:11:22;7.35;;;4.63;;
32172;SDS011;18679;45.190;5.722;2023-04-20T11:14:27;8.20;;;4.18;;
32172;SDS011;18679;45.190;5.722;2023-04-20T11:17:33;15.45;;;4.70;;
32172;SDS011;18679;45.190;5.722;2023-04-20T11:20:35;7.10;;;4.13;;
32172;SDS011;18679;45.190;5.722;2023-04-20T11:23:37;7.22;;;3.70;;
32172;SDS011;18679;45.190;5.722;2023-04-20T11:26:38;4.68;;;2.75;;
32172;SDS011;18679;45.190;5.722;2023-04-20T11:29:43;4.40;;;2.55;;
32172;SDS011;18679;45.190;5.722;2023-04-20T11:32:52;5.30;;;3.15;;
32172;SDS011;18679;45.190;5.722;2023-04-20T11:35:54;8.38;;;3.10;;
32172;SDS011;18679;45.190;5.722;2023-04-20T11:39:07;6.18;;;3.50;;
32172;SDS011;18679;45.190;5.722;2023-04-20T11:42:09;8.95;;;4.55;;
32172;SDS011;18679;45.190;5.722;2023-04-20T11:45:10;6.90;;;3.80;;
32172;SDS011;18679;45.190;5.722;2023-04-20T11:48:11;8.27;;;3.80;;
32172;SDS011;18679;45.190;5.722;2023-04-20T11:51:12;8.98;;;5.35;;
32172;SDS011;18679;45.190;5.722;2023-04-20T11:54:13;9.23;;;4.45;;
32172;SDS011;18679;45.190;5.722;2023-04-20T11:57:14;7.82;;;3.97;;
32172;SDS011;18679;45.190;5.722;2023-04-20T12:00:15;10.55;;;4.85;;
32172;SDS011;18679;45.190;5.722;2023-04-20T12:03:17;8.57;;;5.20;;
32172;SDS011;18679;45.190;5.722;2023-04-20T12:06:18;10.63;;;5.60;;
32172;SDS011;18679;45.190;5.722;2023-04-20T12:09:19;16.30;;;7.45;;
32172;SDS011;18679;45.190;5.722;2023-04-20T12:12:20;13.02;;;6.82;;
32172;SDS011;18679;45.190;5.722;2023-04-20T12:15:22;14.73;;;7.68;;
32172;SDS011;18679;45.190;5.722;2023-04-20T12:18:23;14.15;;;7.40;;
32172;SDS011;18679;45.190;5.722;2023-04-20T12:21:24;13.80;;;7.93;;
32172;SDS011;18679;45.190;5.722;2023-04-20T12:24:26;15.65;;;7.03;;
32172;SDS011;18679;45.190;5.722;2023-04-20T12:27:27;13.15;;;7.38;;
32172;SDS011;18679;45.190;5.722;2023-04-20T12:30:28;13.13;;;7.13;;
32172;SDS011;18679;45.190;5.722;2023-04-20T12:33:29;13.27;;;7.60;;
32172;SDS011;18679;45.190;5.722;2023-04-20T12:36:30;13.00;;;6.57;;
32172;SDS011;18679;45.190;5.722;2023-04-20T12:39:31;11.45;;;4.53;;
32172;SDS011;18679;45.190;5.722;2023-04-20T12:42:32;7.63;;;3.80;;
32172;SDS011;18679;45.190;5.722;2023-04-20T12:45:33;4.65;;;3.13;;
32172;SDS011;18679;45.190;5.722;2023-04-20T12:48:37;7.38;;;4.05;;
32172;SDS011;18679;45.190;5.722;2023-04-20T12:51:44;7.30;;;4.00;;
32172;SDS011;18679;45.190;5.722;2023-04-20T12:54:45;8.90;;;4.63;;
32172;SDS011;18679;45.190;5.722;2023-04-20T12:57:46;9.70;;;3.65;;
32172;SDS011;18679;45.190;5.722;2023-04-20T13:00:47;8.25;;;4.55;;
32172;SDS011;18679;45.190;5.722;2023-04-20T13:03:49;14.85;;;4.03;;
32172;SDS011;18679;45.190;5.722;2023-04-20T13:06:51;8.77;;;5.00;;
32172;SDS011;18679;45.190;5.722;2023-04-20T13:09:52;7.88;;;5.07;;
32172;SDS011;18679;45.190;5.722;2023-04-20T13:12:53;12.68;;;6.43;;
32172;SDS011;18679;45.190;5.722;2023-04-20T13:15:53;11.52;;;5.78;;
32172;SDS011;18679;45.190;5.722;2023-04-20T13:18:55;14.10;;;6.80;;
32172;SDS011;18679;45.190;5.722;2023-04-20T13:21:56;12.38;;;6.00;;
32172;SDS011;18679;45.190;5.722;2023-04-20T13:24:57;14.93;;;7.35;;
32172;SDS011;18679;45.190;5.722;2023-04-20T13:27:59;15.95;;;7.78;;
32172;SDS011;18679;45.190;5.722;2023-04-20T13:31:01;13.85;;;6.97;;
32172;SDS011;18679;45.190;5.722;2023-04-20T13:34:02;12.35;;;6.45;;
32172;SDS011;18679;45.190;5.722;2023-04-20T13:37:03;11.15;;;6.22;;
32172;SDS011;18679;45.190;5.722;2023-04-20T13:40:04;10.57;;;6.15;;
32172;SDS011;18679;45.190;5.722;2023-04-20T13:43:06;12.63;;;6.35;;
32172;SDS011;18679;45.190;5.722;2023-04-20T13:46:07;13.32;;;6.10;;
32172;SDS011;18679;45.190;5.722;2023-04-20T13:49:07;11.98;;;6.60;;
32172;SDS011;18679;45.190;5.722;2023-04-20T13:52:08;11.77;;;6.35;;
32172;SDS011;18679;45.190;5.722;2023-04-20T13:55:09;11.02;;;6.57;;
32172;SDS011;18679;45.190;5.722;2023-04-20T13:58:10;9.98;;;6.03;;
32172;SDS011;18679;45.190;5.722;2023-04-20T14:01:12;11.50;;;5.20;;
32172;SDS011;18679;45.190;5.722;2023-04-20T14:04:16;11.30;;;5.50;;
32172;SDS011;18679;45.190;5.722;2023-04-20T14:07:17;10.50;;;5.30;;
32172;SDS011;18679;45.190;5.722;2023-04-20T14:10:18;11.93;;;5.85;;
32172;SDS011;18679;45.190;5.722;2023-04-20T14:13:19;11.02;;;5.43;;
32172;SDS011;18679;45.190;5.722;2023-04-20T14:16:20;12.25;;;6.05;;
32172;SDS011;18679;45.190;5.722;2023-04-20T14:19:21;9.32;;;5.40;;
32172;SDS011;18679;45.190;5.722;2023-04-20T14:22:22;8.65;;;5.13;;
32172;SDS011;18679;45.190;5.722;2023-04-20T14:25:23;12.38;;;4.70;;
32172;SDS011;18679;45.190;5.722;2023-04-20T14:28:24;8.07;;;4.35;;
32172;SDS011;18679;45.190;5.722;2023-04-20T14:31:25;8.20;;;4.15;;
32172;SDS011;18679;45.190;5.722;2023-04-20T14:34:26;10.82;;;4.22;;
32172;SDS011;18679;45.190;5.722;2023-04-20T14:37:26;6.97;;;3.85;;
32172;SDS011;18679;45.190;5.722;2023-04-20T14:40:27;8.60;;;4.40;;
32172;SDS011;18679;45.190;5.722;2023-04-20T14:43:28;7.18;;;3.92;;
32172;SDS011;18679;45.190;5.722;2023-04-20T14:46:31;7.57;;;3.78;;
32172;SDS011;18679;45.190;5.722;2023-04-20T14:49:32;12.50;;;3.95;;
32172;SDS011;18679;45.190;5.722;2023-04-20T14:52:33;7.18;;;3.28;;
32172;SDS011;18679;45.190;5.722;2023-04-20T14:55:34;7.28;;;4.20;;
32172;SDS011;18679;45.190;5.722;2023-04-20T14:58:35;7.13;;;4.38;;
32172;SDS011;18679;45.190;5.722;2023-04-20T15:01:36;6.50;;;3.85;;
32172;SDS011;18679;45.190;5.722;2023-04-20T15:04:37;6.18;;;3.05;;
32172;SDS011;18679;45.190;5.722;2023-04-20T15:07:38;8.02;;;4.22;;
32172;SDS011;18679;45.190;5.722;2023-04-20T15:10:39;9.00;;;3.28;;
32172;SDS011;18679;45.190;5.722;2023-04-20T15:13:40;5.60;;;3.25;;
32172;SDS011;18679;45.190;5.722;2023-04-20T15:16:41;5.18;;;2.92;;
32172;SDS011;18679;45.190;5.722;2023-04-20T15:19:42;7.68;;;3.80;;
32172;SDS011;18679;45.190;5.722;2023-04-20T15:22:45;7.95;;;3.67;;
32172;SDS011;18679;45.190;5.722;2023-04-20T15:25:46;9.90;;;3.60;;
32172;SDS011;18679;45.190;5.722;2023-04-20T15:28:46;4.45;;;2.95;;
32172;SDS011;18679;45.190;5.722;2023-04-20T15:31:49;4.45;;;2.95;;
32172;SDS011;18679;45.190;5.722;2023-04-20T15:34:49;7.50;;;3.83;;
32172;SDS011;18679;45.190;5.722;2023-04-20T15:37:50;3.47;;;2.22;;
32172;SDS011;18679;45.190;5.722;2023-04-20T15:40:51;4.60;;;2.28;;
32172;SDS011;18679;45.190;5.722;2023-04-20T15:43:53;5.20;;;2.55;;
32172;SDS011;18679;45.190;5.722;2023-04-20T15:46:53;3.60;;;2.25;;
32172;SDS011;18679;45.190;5.722;2023-04-20T15:49:56;5.40;;;2.25;;
32172;SDS011;18679;45.190;5.722;2023-04-20T15:53:00;6.03;;;2.90;;
32172;SDS011;18679;45.190;5.722;2023-04-20T15:56:01;6.65;;;2.70;;
32172;SDS011;18679;45.190;5.722;2023-04-20T15:59:02;4.63;;;2.30;;
32172;SDS011;18679;45.190;5.722;2023-04-20T16:02:03;4.93;;;2.20;;
32172;SDS011;18679;45.190;5.722;2023-04-20T16:05:05;2.72;;;1.95;;
32172;SDS011;18679;45.190;5.722;2023-04-20T16:08:06;4.13;;;1.95;;
32172;SDS011;18679;45.190;5.722;2023-04-20T16:11:07;3.53;;;2.25;;
32172;SDS011;18679;45.190;5.722;2023-04-20T16:14:08;4.88;;;2.17;;
32172;SDS011;18679;45.190;5.722;2023-04-20T16:17:09;3.33;;;2.00;;
32172;SDS011;18679;45.190;5.722;2023-04-20T16:20:10;1.85;;;1.70;;
32172;SDS011;18679;45.190;5.722;2023-04-20T16:23:12;5.05;;;2.20;;
32172;SDS011;18679;45.190;5.722;2023-04-20T16:26:13;3.88;;;2.30;;
32172;SDS011;18679;45.190;5.722;2023-04-20T16:29:15;6.70;;;3.10;;
32172;SDS011;18679;45.190;5.722;2023-04-20T16:32:16;3.92;;;2.20;;
32172;SDS011;18679;45.190;5.722;2023-04-20T16:35:16;2.50;;;2.08;;
32172;SDS011;18679;45.190;5.722;2023-04-20T16:38:18;5.65;;;3.20;;
32172;SDS011;18679;45.190;5.722;2023-04-20T16:41:19;16.63;;;5.75;;
32172;SDS011;18679;45.190;5.722;2023-04-20T16:44:21;7.43;;;3.50;;
32172;SDS011;18679;45.190;5.722;2023-04-20T16:47:21;8.40;;;3.88;;
32172;SDS011;18679;45.190;5.722;2023-04-20T16:50:22;10.93;;;4.90;;
32172;SDS011;18679;45.190;5.722;2023-04-20T16:53:23;15.55;;;6.43;;
32172;SDS011;18679;45.190;5.722;2023-04-20T16:56:24;19.55;;;6.03;;
32172;SDS011;18679;45.190;5.722;2023-04-20T16:59:25;8.90;;;4.60;;
32172;SDS011;18679;45.190;5.722;2023-04-20T17:02:26;23.25;;;5.38;;
32172;SDS011;18679;45.190;5.722;2023-04-20T17:05:31;7.18;;;3.25;;
32172;SDS011;18679;45.190;5.722;2023-04-20T17:08:32;7.88;;;3.28;;
32172;SDS011;18679;45.190;5.722;2023-04-20T17:11:33;6.97;;;3.50;;
32172;SDS011;18679;45.190;5.722;2023-04-20T17:14:35;15.18;;;5.80;;
32172;SDS011;18679;45.190;5.722;2023-04-20T17:17:36;6.82;;;3.78;;
32172;SDS011;18679;45.190;5.722;2023-04-20T17:20:37;15.48;;;5.53;;
32172;SDS011;18679;45.190;5.722;2023-04-20T17:23:38;15.75;;;5.90;;
32172;SDS011;18679;45.190;5.722;2023-04-20T17:26:40;11.23;;;4.30;;
32172;SDS011;18679;45.190;5.722;2023-04-20T17:29:41;17.02;;;6.93;;
32172;SDS011;18679;45.190;5.722;2023-04-20T17:32:43;20.90;;;6.57;;
32172;SDS011;18679;45.190;5.722;2023-04-20T17:35:45;7.78;;;4.30;;
32172;SDS011;18679;45.190;5.722;2023-04-20T17:38:46;13.57;;;5.88;;
32172;SDS011;18679;45.190;5.722;2023-04-20T17:41:46;18.45;;;8.45;;
32172;SDS011;18679;45.190;5.722;2023-04-20T17:44:47;11.27;;;4.30;;
32172;SDS011;18679;45.190;5.722;2023-04-20T17:47:48;13.77;;;6.50;;
32172;SDS011;18679;45.190;5.722;2023-04-20T17:50:49;13.80;;;6.55;;
32172;SDS011;18679;45.190;5.722;2023-04-20T17:53:50;14.27;;;5.90;;
32172;SDS011;18679;45.190;5.722;2023-04-20T17:56:52;13.80;;;5.80;;
32172;SDS011;18679;45.190;5.722;2023-04-20T17:59:53;11.20;;;4.43;;
32172;SDS011;18679;45.190;5.722;2023-04-20T18:02:53;7.70;;;4.18;;
32172;SDS011;18679;45.190;5.722;2023-04-20T18:05:55;19.23;;;7.10;;
32172;SDS011;18679;45.190;5.722;2023-04-20T18:08:55;17.02;;;6.10;;
32172;SDS011;18679;45.190;5.722;2023-04-20T18:11:57;20.58;;;6.70;;
32172;SDS011;18679;45.190;5.722;2023-04-20T18:14:58;8.95;;;4.93;;
32172;SDS011;18679;45.190;5.722;2023-04-20T18:17:59;11.13;;;4.90;;